Polaris Voyager — C6AP4 — position and weather

sailwx.info

Track history (hours):
 
Tides and Currents Weather Stations Pressure Air Temp Water Temp Dewpoint Dewpoint Depression Visibility Wind Speed Wind Dir Waves Ship Positions

Polaris Voyager

Last reported at 2018-Jun-22 01:00 UTC. Time now 2018-Jun-22 01:24 UTC.
Position N 33°05' W 118°13'.

Length 276 m; draft 16.7 m.

Type: Ship (hazmat cat A). MMSI: 311000112.

Date/timePositionNaut miles runAvg speedWind from/ knotsBaromVisibWave heightAir tempDewpointWater temp
2018-Jun-22 01:00N 33°05' W 118°13'611.8
2018-Jun-22 00:30N 33°05' W 118°07'611.9
2018-Jun-22 00:01N 33°05' W 117°59'611.6
2018-Jun-21 23:31N 33°05' W 117°53'2 4.5
2018-Jun-21 23:01N 33°05' W 117°50'4 1.0
2018-Jun-21 18:50N 33°01' W 117°47'1 1.3
2018-Jun-21 18:26N 33°01' W 117°47'1 1.2
2018-Jun-21 17:50N 32°60' W 117°46'0 0.7
2018-Jun-21 17:26N 32°60' W 117°46'1 1.0
2018-Jun-21 16:50N 32°59' W 117°46'0 0.9
2018-Jun-21 16:26N 32°59' W 117°46'0 0.8
2018-Jun-21 15:56N 32°58' W 117°47'0 0.9
2018-Jun-21 15:26N 32°58' W 117°47'1 0.9
2018-Jun-21 14:26N 32°57' W 117°47'5 1.2
2018-Jun-21 10:10N 32°52' W 117°47'6 1.0
2018-Jun-21 03:31N 32°58' W 117°49'0 1.0
2018-Jun-21 03:19N 32°58' W 117°49'0 0.9
2018-Jun-21 02:55N 32°58' W 117°49'1 0.9
2018-Jun-21 02:19N 32°59' W 117°50'0 0.8
2018-Jun-21 01:55N 32°59' W 117°50'0 0.8
2018-Jun-21 01:25N 32°59' W 117°50'0 0.7
2018-Jun-21 00:55N 32°60' W 117°50'0 0.7
2018-Jun-21 00:25N 32°60' W 117°51'0 0.8
2018-Jun-20 23:55N 33°00' W 117°51'0 0.7
2018-Jun-20 23:25N 33°01' W 117°51'0 0.8
2018-Jun-20 22:55N 33°01' W 117°51'0 0.8
2018-Jun-20 22:25N 33°01' W 117°52'0 0.8
2018-Jun-20 21:55N 33°01' W 117°52'0 0.7
2018-Jun-20 21:25N 33°02' W 117°52'0 0.7
2018-Jun-20 21:00N 33°02' W 117°53'1 1.9
2018-Jun-20 20:30N 33°03' W 117°53'2 3.3
2018-Jun-20 20:00N 33°04' W 117°54'2 4.4
2018-Jun-20 19:30N 33°06' W 117°55'2 4.4
2018-Jun-20 19:00N 33°08' W 117°57'3 6.0
2018-Jun-20 18:30N 33°10' W 117°59'1 1.7
2018-Jun-20 18:00N 33°11' W 117°60'1 2.4
2018-Jun-20 17:30N 33°12' W 118°00'1011.3
2018-Jun-20 16:38N 33°19' W 118°08'211.6
2018-Jun-20 16:30N 33°20' W 118°09'611.2
2018-Jun-20 15:56N 33°26' W 118°14'510.7
2018-Jun-20 15:30N 33°29' W 118°18'611.1
2018-Jun-20 15:00N 33°31' W 118°24'611.6
2018-Jun-20 14:29N 33°34' W 118°30'611.9
2018-Jun-20 14:00N 33°36' W 118°36'611.9
2018-Jun-20 13:30N 33°37' W 118°44'611.7
2018-Jun-20 13:00N 33°38' W 118°51'611.6
2018-Jun-20 12:30N 33°38' W 118°57'611.6
2018-Jun-20 12:00N 33°39' W 119°05'611.4
2018-Jun-20 11:30N 33°39' W 119°11'611.7
2018-Jun-20 10:59N 33°39' W 119°19'611.9
2018-Jun-20 10:30N 33°39' W 119°25'611.4
2018-Jun-20 09:59N 33°39' W 119°32'611.2
2018-Jun-20 09:29N 33°39' W 119°39'511.1
2018-Jun-20 09:00N 33°38' W 119°46'610.9
2018-Jun-20 08:30N 33°38' W 119°52'510.6
2018-Jun-20 07:59N 33°37' W 119°59'510.0
2018-Jun-20 07:30N 33°37' W 120°04'5 9.8
2018-Jun-20 07:00N 33°36' W 120°10'510.0
2018-Jun-20 06:30N 33°37' W 120°16'510.9
2018-Jun-20 06:00N 33°40' W 120°22'3 5.9
2018-Jun-20 05:29N 33°42' W 120°25'612.5
2018-Jun-20 05:00N 33°46' W 120°31'915.8
2018-Jun-20 04:24N 33°50' W 120°41'615.4
2018-Jun-20 03:59N 33°54' W 120°47'815.8
2018-Jun-20 03:30N 33°59' W 120°53'816.2
2018-Jun-20 03:00N 34°06' W 120°59'815.7
2018-Jun-20 02:30N 34°13' W 121°03'815.4
2018-Jun-20 02:00N 34°20' W 121°07'815.1
2018-Jun-20 01:30N 34°27' W 121°12'815.1
2018-Jun-20 01:00N 34°33' W 121°17'815.2
2018-Jun-20 00:30N 34°40' W 121°21'815.8
2018-Jun-20 00:00N 34°46' W 121°26'815.6
2018-Jun-19 23:30N 34°53' W 121°31'815.5
2018-Jun-19 23:00N 34°60' W 121°36'815.6
2018-Jun-19 22:30N 35°07' W 121°40'815.5
2018-Jun-19 21:59N 35°13' W 121°46'816.1
2018-Jun-19 21:30N 35°20' W 121°51'715.3
2018-Jun-19 21:00N 35°27' W 121°55'815.2
2018-Jun-19 20:30N 35°33' W 122°00'815.2
2018-Jun-19 20:00N 35°40' W 122°05'816.0
2018-Jun-19 19:30N 35°47' W 122°10'815.5
2018-Jun-19 19:00N 35°53' W 122°15'815.7
2018-Jun-19 18:30N 36°00' W 122°20'816.9
2018-Jun-19 18:00N 36°07' W 122°25'917.1
2018-Jun-19 17:30N 36°15' W 122°30'916.7
2018-Jun-19 16:59N 36°23' W 122°35'816.5
2018-Jun-19 16:30N 36°30' W 122°38'816.0
2018-Jun-19 16:00N 36°37' W 122°42'816.0
2018-Jun-19 15:30N 36°45' W 122°46'816.2
2018-Jun-19 15:00N 36°52' W 122°49'816.2
2018-Jun-19 14:30N 36°60' W 122°53'816.0
2018-Jun-19 14:00N 37°07' W 122°57'815.6
2018-Jun-19 13:28N 37°15' W 123°01'715.8
2018-Jun-19 13:00N 37°22' W 123°04'714.6
2018-Jun-19 12:30N 37°29' W 123°06'612.0
2018-Jun-19 12:00N 37°35' W 123°02'5 9.8
2018-Jun-19 11:30N 37°37' W 122°57'5 9.9
2018-Jun-19 11:00N 37°40' W 122°52'510.3
2018-Jun-19 10:30N 37°43' W 122°47'4 7.5
2018-Jun-19 10:00N 37°45' W 122°43'510.2
2018-Jun-19 09:30N 37°46' W 122°36'510.7
2018-Jun-19 09:01N 37°49' W 122°30'5 9.8
2018-Jun-19 08:30N 37°51' W 122°25'4 8.4
2018-Jun-19 08:00N 37°55' W 122°25'1 0.0
2018-Jun-18 03:03N 37°56' W 122°25'0 0.0
2018-Jun-18 03:00N 37°56' W 122°25'0 0.5
2018-Jun-18 02:30N 37°55' W 122°25'2 4.9
2018-Jun-18 02:00N 37°53' W 122°25'4 8.0
2018-Jun-18 01:30N 37°49' W 122°26'4 7.8
2018-Jun-18 01:00N 37°48' W 122°31'510.6
2018-Jun-18 00:30N 37°46' W 122°37'510.3
2018-Jun-18 00:00N 37°44' W 122°43'4 7.8
2018-Jun-17 23:30N 37°41' W 122°46'5 8.5
2018-Jun-17 22:58N 37°39' W 122°51'511.0
2018-Jun-17 22:30N 37°36' W 122°57'611.6
2018-Jun-17 22:00N 37°33' W 123°03'611.3
2018-Jun-17 21:30N 37°29' W 123°08'4 7.5
2018-Jun-17 21:00N 37°26' W 123°11'4 7.2
2018-Jun-17 20:30N 37°22' W 123°10'714.6
2018-Jun-17 20:00N 37°15' W 123°09'15513.5
2018-Jun-17 08:32N 34°50' W 122°03'014.0
2018-Jun-17 08:30N 34°50' W 122°03'1513.0
2018-Jun-17 07:21N 34°37' W 121°53'413.2
2018-Jun-17 07:00N 34°33' W 121°50'713.5
2018-Jun-17 06:30N 34°27' W 121°46'713.6
2018-Jun-17 06:00N 34°22' W 121°41'713.8
2018-Jun-17 05:30N 34°17' W 121°35'713.9
2018-Jun-17 05:01N 34°14' W 121°28'713.3
2018-Jun-17 04:30N 34°10' W 121°21'713.5
2018-Jun-17 04:00N 34°06' W 121°14'713.6
2018-Jun-17 03:30N 34°03' W 121°07'713.7
2018-Jun-17 03:00N 33°59' W 120°60'713.3
2018-Jun-17 02:30N 33°56' W 120°53'713.4
2018-Jun-17 02:01N 33°52' W 120°46'714.0
2018-Jun-17 01:30N 33°48' W 120°39'713.8
2018-Jun-17 01:00N 33°45' W 120°32'714.0
2018-Jun-17 00:30N 33°41' W 120°25'714.0
2018-Jun-17 00:00N 33°37' W 120°18'713.4
2018-Jun-16 23:30N 33°35' W 120°10'714.5
2018-Jun-16 23:00N 33°35' W 120°01'714.6
2018-Jun-16 22:31N 33°35' W 119°53'815.0
2018-Jun-16 22:00N 33°35' W 119°44'714.9
2018-Jun-16 21:31N 33°34' W 119°35'714.8
2018-Jun-16 21:00N 33°31' W 119°27'714.7
2018-Jun-16 20:30N 33°27' W 119°20'714.8
2018-Jun-16 20:00N 33°21' W 119°14'714.8
2018-Jun-16 19:30N 33°15' W 119°09'714.9
2018-Jun-16 19:01N 33°14' W 119°00'713.5
2018-Jun-16 18:27N 33°14' W 118°51'611.7
2018-Jun-16 17:58N 33°14' W 118°45'511.0
2018-Jun-16 17:29N 33°13' W 118°38'611.7
2018-Jun-16 16:58N 33°10' W 118°32'612.1
2018-Jun-16 16:30N 33°08' W 118°26'611.8
2018-Jun-16 16:00N 33°06' W 118°19'611.8
2018-Jun-16 15:30N 33°06' W 118°12'612.0
2018-Jun-16 14:59N 33°06' W 118°05'712.0
2018-Jun-16 14:25N 33°06' W 117°57'6 1.9
2018-Jun-16 11:19N 33°04' W 117°50'0 1.0
2018-Jun-16 10:55N 33°04' W 117°50'0 1.0
2018-Jun-16 10:31N 33°03' W 117°50'0 0.9
2018-Jun-16 10:01N 33°03' W 117°50'1 1.0
2018-Jun-16 09:19N 33°02' W 117°49'0 0.9
2018-Jun-16 09:01N 33°02' W 117°49'1 1.1
2018-Jun-16 08:31N 33°02' W 117°49'1 1.0
2018-Jun-16 07:55N 33°01' W 117°48'0 1.1
2018-Jun-16 07:31N 33°01' W 117°48'0 1.0
2018-Jun-16 07:01N 33°01' W 117°47'1 1.7
2018-Jun-16 06:25N 32°60' W 117°46'1 2.0
2018-Jun-16 05:55N 32°59' W 117°46'1 1.4
2018-Jun-16 05:25N 32°59' W 117°45'1 1.0
2018-Jun-16 04:55N 32°58' W 117°45'1 1.6
2018-Jun-16 04:31N 32°58' W 117°44'1 1.8
2018-Jun-16 04:01N 32°57' W 117°44'2 1.2
2018-Jun-16 02:20N 32°56' W 117°42'2 1.1
2018-Jun-16 00:29N 32°57' W 117°44'1 1.3
2018-Jun-15 23:59N 32°57' W 117°44'1 1.3
2018-Jun-15 23:29N 32°58' W 117°45'1 1.3
2018-Jun-15 22:53N 32°58' W 117°45'0 1.2
2018-Jun-15 22:29N 32°59' W 117°46'1 1.1
2018-Jun-15 21:59N 32°59' W 117°46'0 1.0
2018-Jun-15 21:29N 32°59' W 117°47'1 1.3
2018-Jun-15 20:47N 32°60' W 117°48'0 1.3
2018-Jun-15 20:29N 32°60' W 117°48'1 1.4
2018-Jun-15 19:47N 33°00' W 117°49'0 1.3
2018-Jun-15 19:29N 33°01' W 117°49'1 1.1
2018-Jun-15 18:59N 33°01' W 117°50'0 0.8
2018-Jun-15 18:29N 33°01' W 117°50'0 0.6
2018-Jun-15 17:41N 33°01' W 117°51'0 0.6
2018-Jun-15 17:29N 33°01' W 117°51'0 0.5
2018-Jun-15 16:59N 33°01' W 117°51'0 0.6
2018-Jun-15 16:30N 33°02' W 117°52'1 1.6
2018-Jun-15 16:00N 33°02' W 117°52'1 2.7
2018-Jun-15 15:30N 33°03' W 117°53'2 4.3
2018-Jun-15 15:00N 33°05' W 117°55'2 4.3
2018-Jun-15 14:30N 33°07' W 117°56'2 5.0
2018-Jun-15 14:00N 33°09' W 117°58'3 6.4
2018-Jun-15 13:30N 33°12' W 117°60'0 0.6
2018-Jun-15 13:00N 33°12' W 118°00'4 7.8
2018-Jun-15 12:29N 33°15' W 118°03'611.7
2018-Jun-15 12:00N 33°19' W 118°08'611.9
2018-Jun-15 11:29N 33°23' W 118°12'611.9
2018-Jun-15 10:58N 33°29' W 118°17'511.0
2018-Jun-15 10:30N 33°31' W 118°22'611.3
2018-Jun-15 10:00N 33°32' W 118°28'611.6
2018-Jun-15 09:30N 33°35' W 118°35'611.6
2018-Jun-15 09:00N 33°36' W 118°41'711.8
2018-Jun-15 08:24N 33°37' W 118°50'611.8
2018-Jun-15 07:53N 33°37' W 118°57'511.9
2018-Jun-15 07:30N 33°38' W 119°03'813.2
2018-Jun-15 06:56N 33°38' W 119°12'5 8.8
2018-Jun-15 06:21N 33°38' W 119°18'712.9
2018-Jun-15 05:49N 33°39' W 119°26'915.4
2018-Jun-15 05:14N 33°39' W 119°37'415.9
2018-Jun-15 04:57N 33°39' W 119°42'815.6
2018-Jun-15 04:28N 33°38' W 119°51'715.0
2018-Jun-15 04:00N 33°37' W 119°59'714.9
2018-Jun-15 03:30N 33°36' W 120°08'814.7
2018-Jun-15 02:57N 33°38' W 120°18'915.4
2018-Jun-15 02:23N 33°43' W 120°26'715.8
2018-Jun-15 01:58N 33°47' W 120°33'815.5
2018-Jun-15 01:28N 33°51' W 120°41'715.3
2018-Jun-15 01:00N 33°55' W 120°48'815.4
2018-Jun-15 00:30N 34°01' W 120°54'815.9
2018-Jun-14 23:59N 34°08' W 120°58'815.7
2018-Jun-14 23:29N 34°15' W 121°04'815.7
2018-Jun-14 23:00N 34°21' W 121°08'815.9
2018-Jun-14 22:31N 34°28' W 121°13'815.6
2018-Jun-14 22:00N 34°35' W 121°18'815.8
2018-Jun-14 21:30N 34°42' W 121°23'815.5
2018-Jun-14 21:00N 34°48' W 121°28'815.5
2018-Jun-14 20:30N 34°55' W 121°33'815.5
2018-Jun-14 20:00N 35°01' W 121°38'815.5
2018-Jun-14 19:30N 35°08' W 121°43'816.0
2018-Jun-14 19:00N 35°15' W 121°47'815.7
2018-Jun-14 18:30N 35°22' W 121°52'815.8
2018-Jun-14 18:00N 35°29' W 121°57'815.7
2018-Jun-14 17:30N 35°35' W 122°02'815.7
2018-Jun-14 17:00N 35°42' W 122°07'6015.7
2018-Jun-14 13:13N 36°35' W 122°41'3015.3
2018-Jun-14 11:18N 37°02' W 122°56'715.0
2018-Jun-14 10:51N 37°09' W 122°57'615.2
2018-Jun-14 10:26N 37°15' W 122°59'615.1
2018-Jun-14 10:01N 37°21' W 123°01'915.3
2018-Jun-14 09:23N 37°30' W 123°04'411.0
2018-Jun-14 09:00N 37°34' W 123°04'5 9.8
2018-Jun-14 08:30N 37°37' W 122°59'510.1
2018-Jun-14 08:00N 37°39' W 122°53'510.0
2018-Jun-14 07:30N 37°42' W 122°48'5 9.3
2018-Jun-14 07:00N 37°43' W 122°42'3 5.2
2018-Jun-14 06:30N 37°44' W 122°39'4 7.5
2018-Jun-14 06:00N 37°47' W 122°36'5 9.5
2018-Jun-14 05:30N 37°49' W 122°30'5 9.2
2018-Jun-14 05:00N 37°51' W 122°25'4 7.2
2018-Jun-14 04:30N 37°54' W 122°25'1 2.4
2018-Jun-14 03:56N 37°56' W 122°25'0 0.0
2018-Jun-14 03:29N 37°56' W 122°25'0 0.0
2018-Jun-14 02:59N 37°56' W 122°25'0 0.0
2018-Jun-14 02:26N 37°56' W 122°25'0 0.0
2018-Jun-14 01:59N 37°56' W 122°25'0 0.0
2018-Jun-14 01:29N 37°56' W 122°25'0 0.0
2018-Jun-14 00:59N 37°56' W 122°25'0 0.0
2018-Jun-14 00:29N 37°56' W 122°25'0 0.0
2018-Jun-13 23:59N 37°56' W 122°25'0 0.0
2018-Jun-13 23:29N 37°56' W 122°25'0 0.0
2018-Jun-13 22:50N 37°56' W 122°25'0 0.0
2018-Jun-13 22:30N 37°56' W 122°25'0 0.0
2018-Jun-13 22:00N 37°56' W 122°25'0 0.0
2018-Jun-13 21:30N 37°56' W 122°25'0 0.0
2018-Jun-13 21:00N 37°56' W 122°25'0 0.0
2018-Jun-13 20:30N 37°56' W 122°25'0 0.0
2018-Jun-13 20:00N 37°56' W 122°25'0 0.0
2018-Jun-13 19:30N 37°56' W 122°25'0 0.0
2018-Jun-13 19:00N 37°56' W 122°25'0 0.0
2018-Jun-13 18:30N 37°56' W 122°25'0 0.0
2018-Jun-13 18:00N 37°56' W 122°25'0 0.0
2018-Jun-13 17:30N 37°56' W 122°25'0 0.0
2018-Jun-13 17:00N 37°56' W 122°25'0 0.0
2018-Jun-13 16:30N 37°56' W 122°25'0 0.0
2018-Jun-13 16:00N 37°56' W 122°25'0 0.0
2018-Jun-13 15:30N 37°56' W 122°25'0 0.0
2018-Jun-13 14:54N 37°56' W 122°25'0 0.0
2018-Jun-13 14:30N 37°56' W 122°25'0 0.0
2018-Jun-13 13:57N 37°56' W 122°25'0 0.0
2018-Jun-13 13:30N 37°56' W 122°25'0 0.0
2018-Jun-13 12:54N 37°56' W 122°25'0 0.0
2018-Jun-13 12:30N 37°56' W 122°25'0 0.0
2018-Jun-13 12:00N 37°56' W 122°25'0 0.0
2018-Jun-13 11:27N 37°56' W 122°25'0 0.0
2018-Jun-13 11:00N 37°56' W 122°25'0 0.0
2018-Jun-13 10:30N 37°56' W 122°25'0 0.0
2018-Jun-13 09:51N 37°56' W 122°25'0 0.0
2018-Jun-13 09:27N 37°56' W 122°25'0 0.0
2018-Jun-13 08:57N 37°56' W 122°25'0 0.0
2018-Jun-13 08:21N 37°56' W 122°25'0 0.0
2018-Jun-13 07:51N 37°56' W 122°25'0 0.0
2018-Jun-13 07:30N 37°56' W 122°25'0 0.0
2018-Jun-13 06:57N 37°56' W 122°25'0 0.0
2018-Jun-13 06:21N 37°56' W 122°25'0 0.0
2018-Jun-13 05:54N 37°56' W 122°25'0 0.0
2018-Jun-13 05:27N 37°56' W 122°25'0 0.0
2018-Jun-13 05:00N 37°56' W 122°25'1 2.0
2018-Jun-13 04:30N 37°55' W 122°25'4 8.0
2018-Jun-13 04:00N 37°51' W 122°25'510.0
2018-Jun-13 03:30N 37°48' W 122°30'612.1
2018-Jun-13 03:00N 37°46' W 122°37'510.0
2018-Jun-13 02:30N 37°43' W 122°43'4 8.0
2018-Jun-13 02:01N 37°41' W 122°47'611.1
2018-Jun-13 01:30N 37°38' W 122°52'611.8
2018-Jun-13 01:00N 37°34' W 122°59'611.7
2018-Jun-13 00:30N 37°31' W 123°05'5 9.9
2018-Jun-13 00:00N 37°27' W 123°09'2 4.0
2018-Jun-12 23:30N 37°25' W 123°09'612.3
2018-Jun-12 22:59N 37°19' W 123°08'613.1
2018-Jun-12 22:30N 37°13' W 123°06'713.5
2018-Jun-12 22:00N 37°06' W 123°05'1313.2
2018-Jun-12 21:02N 36°54' W 123°02'013.0
2018-Jun-12 21:00N 36°53' W 123°02'5413.0
2018-Jun-12 16:50N 35°60' W 122°51'412.6
2018-Jun-12 16:30N 35°56' W 122°49'612.7
2018-Jun-12 16:00N 35°50' W 122°45'712.7
2018-Jun-12 15:29N 35°45' W 122°41'612.8
2018-Jun-12 15:00N 35°39' W 122°37'612.9
2018-Jun-12 14:30N 35°34' W 122°34'713.3
2018-Jun-12 14:00N 35°28' W 122°30'4113.3
2018-Jun-12 10:54N 34°52' W 122°04'612.8
2018-Jun-12 10:25N 34°47' W 122°01'613.2
2018-Jun-12 10:00N 34°42' W 121°57'613.1
2018-Jun-12 09:30N 34°37' W 121°53'713.2
2018-Jun-12 09:00N 34°31' W 121°49'713.3
2018-Jun-12 08:30N 34°26' W 121°44'713.5
2018-Jun-12 08:00N 34°20' W 121°40'713.5
2018-Jun-12 07:31N 34°16' W 121°33'713.5
2018-Jun-12 07:00N 34°13' W 121°26'713.6
2018-Jun-12 06:30N 34°09' W 121°19'713.3
2018-Jun-12 06:00N 34°05' W 121°12'712.8
2018-Jun-12 05:29N 34°02' W 121°05'612.6
2018-Jun-12 05:00N 33°59' W 120°59'712.9
2018-Jun-12 04:30N 33°55' W 120°52'713.0
2018-Jun-12 03:59N 33°52' W 120°46'712.8
2018-Jun-12 03:29N 33°48' W 120°39'713.0
2018-Jun-12 02:58N 33°44' W 120°33'613.0
2018-Jun-12 02:30N 33°40' W 120°27'612.8
2018-Jun-12 02:00N 33°37' W 120°21'612.5
2018-Jun-12 01:30N 33°35' W 120°13'  
Track history (hours):
 
Tides and Currents Weather Stations Pressure Air Temp Water Temp Dewpoint Dewpoint Depression Visibility Wind Speed Wind Dir Waves Ship Positions

Polaris Voyager

Last reported at 2018-Jun-22 01:00 UTC. Time now 2018-Jun-22 01:24 UTC.
Position N 33°05' W 118°13'.

Length 276 m; draft 16.7 m.

Type: Ship (hazmat cat A). MMSI: 311000112.

Date/timePositionNaut miles runAvg speedWind from/ knotsBaromVisibWave heightAir tempDewpointWater temp
2018-Jun-22 01:00N 33°05' W 118°13'611.8
2018-Jun-22 00:30N 33°05' W 118°07'611.9
2018-Jun-22 00:01N 33°05' W 117°59'611.6
2018-Jun-21 23:31N 33°05' W 117°53'2 4.5
2018-Jun-21 23:01N 33°05' W 117°50'4 1.0
2018-Jun-21 18:50N 33°01' W 117°47'1 1.3
2018-Jun-21 18:26N 33°01' W 117°47'1 1.2
2018-Jun-21 17:50N 32°60' W 117°46'0 0.7
2018-Jun-21 17:26N 32°60' W 117°46'1 1.0
2018-Jun-21 16:50N 32°59' W 117°46'0 0.9
2018-Jun-21 16:26N 32°59' W 117°46'0 0.8
2018-Jun-21 15:56N 32°58' W 117°47'0 0.9
2018-Jun-21 15:26N 32°58' W 117°47'1 0.9
2018-Jun-21 14:26N 32°57' W 117°47'5 1.2
2018-Jun-21 10:10N 32°52' W 117°47'6 1.0
2018-Jun-21 03:31N 32°58' W 117°49'0 1.0
2018-Jun-21 03:19N 32°58' W 117°49'0 0.9
2018-Jun-21 02:55N 32°58' W 117°49'1 0.9
2018-Jun-21 02:19N 32°59' W 117°50'0 0.8
2018-Jun-21 01:55N 32°59' W 117°50'0 0.8
2018-Jun-21 01:25N 32°59' W 117°50'0 0.7
2018-Jun-21 00:55N 32°60' W 117°50'0 0.7
2018-Jun-21 00:25N 32°60' W 117°51'0 0.8
2018-Jun-20 23:55N 33°00' W 117°51'0 0.7
2018-Jun-20 23:25N 33°01' W 117°51'0 0.8
2018-Jun-20 22:55N 33°01' W 117°51'0 0.8
2018-Jun-20 22:25N 33°01' W 117°52'0 0.8
2018-Jun-20 21:55N 33°01' W 117°52'0 0.7
2018-Jun-20 21:25N 33°02' W 117°52'0 0.7
2018-Jun-20 21:00N 33°02' W 117°53'1 1.9
2018-Jun-20 20:30N 33°03' W 117°53'2 3.3
2018-Jun-20 20:00N 33°04' W 117°54'2 4.4
2018-Jun-20 19:30N 33°06' W 117°55'2 4.4
2018-Jun-20 19:00N 33°08' W 117°57'3 6.0
2018-Jun-20 18:30N 33°10' W 117°59'1 1.7
2018-Jun-20 18:00N 33°11' W 117°60'1 2.4
2018-Jun-20 17:30N 33°12' W 118°00'1011.3
2018-Jun-20 16:38N 33°19' W 118°08'211.6
2018-Jun-20 16:30N 33°20' W 118°09'611.2
2018-Jun-20 15:56N 33°26' W 118°14'510.7
2018-Jun-20 15:30N 33°29' W 118°18'611.1
2018-Jun-20 15:00N 33°31' W 118°24'611.6
2018-Jun-20 14:29N 33°34' W 118°30'611.9
2018-Jun-20 14:00N 33°36' W 118°36'611.9
2018-Jun-20 13:30N 33°37' W 118°44'611.7
2018-Jun-20 13:00N 33°38' W 118°51'611.6
2018-Jun-20 12:30N 33°38' W 118°57'611.6
2018-Jun-20 12:00N 33°39' W 119°05'611.4
2018-Jun-20 11:30N 33°39' W 119°11'611.7
2018-Jun-20 10:59N 33°39' W 119°19'611.9
2018-Jun-20 10:30N 33°39' W 119°25'611.4
2018-Jun-20 09:59N 33°39' W 119°32'611.2
2018-Jun-20 09:29N 33°39' W 119°39'511.1
2018-Jun-20 09:00N 33°38' W 119°46'610.9
2018-Jun-20 08:30N 33°38' W 119°52'510.6
2018-Jun-20 07:59N 33°37' W 119°59'510.0
2018-Jun-20 07:30N 33°37' W 120°04'5 9.8
2018-Jun-20 07:00N 33°36' W 120°10'510.0
2018-Jun-20 06:30N 33°37' W 120°16'510.9
2018-Jun-20 06:00N 33°40' W 120°22'3 5.9
2018-Jun-20 05:29N 33°42' W 120°25'612.5
2018-Jun-20 05:00N 33°46' W 120°31'915.8
2018-Jun-20 04:24N 33°50' W 120°41'615.4
2018-Jun-20 03:59N 33°54' W 120°47'815.8
2018-Jun-20 03:30N 33°59' W 120°53'816.2
2018-Jun-20 03:00N 34°06' W 120°59'815.7
2018-Jun-20 02:30N 34°13' W 121°03'815.4
2018-Jun-20 02:00N 34°20' W 121°07'815.1
2018-Jun-20 01:30N 34°27' W 121°12'815.1
2018-Jun-20 01:00N 34°33' W 121°17'815.2
2018-Jun-20 00:30N 34°40' W 121°21'815.8
2018-Jun-20 00:00N 34°46' W 121°26'815.6
2018-Jun-19 23:30N 34°53' W 121°31'815.5
2018-Jun-19 23:00N 34°60' W 121°36'815.6
2018-Jun-19 22:30N 35°07' W 121°40'815.5
2018-Jun-19 21:59N 35°13' W 121°46'816.1
2018-Jun-19 21:30N 35°20' W 121°51'715.3
2018-Jun-19 21:00N 35°27' W 121°55'815.2
2018-Jun-19 20:30N 35°33' W 122°00'815.2
2018-Jun-19 20:00N 35°40' W 122°05'816.0
2018-Jun-19 19:30N 35°47' W 122°10'815.5
2018-Jun-19 19:00N 35°53' W 122°15'815.7
2018-Jun-19 18:30N 36°00' W 122°20'816.9
2018-Jun-19 18:00N 36°07' W 122°25'917.1
2018-Jun-19 17:30N 36°15' W 122°30'916.7
2018-Jun-19 16:59N 36°23' W 122°35'816.5
2018-Jun-19 16:30N 36°30' W 122°38'816.0
2018-Jun-19 16:00N 36°37' W 122°42'816.0
2018-Jun-19 15:30N 36°45' W 122°46'816.2
2018-Jun-19 15:00N 36°52' W 122°49'816.2
2018-Jun-19 14:30N 36°60' W 122°53'816.0
2018-Jun-19 14:00N 37°07' W 122°57'815.6
2018-Jun-19 13:28N 37°15' W 123°01'715.8
2018-Jun-19 13:00N 37°22' W 123°04'714.6
2018-Jun-19 12:30N 37°29' W 123°06'612.0
2018-Jun-19 12:00N 37°35' W 123°02'5 9.8
2018-Jun-19 11:30N 37°37' W 122°57'5 9.9
2018-Jun-19 11:00N 37°40' W 122°52'510.3
2018-Jun-19 10:30N 37°43' W 122°47'4 7.5
2018-Jun-19 10:00N 37°45' W 122°43'510.2
2018-Jun-19 09:30N 37°46' W 122°36'510.7
2018-Jun-19 09:01N 37°49' W 122°30'5 9.8
2018-Jun-19 08:30N 37°51' W 122°25'4 8.4
2018-Jun-19 08:00N 37°55' W 122°25'1 0.0
2018-Jun-18 03:03N 37°56' W 122°25'0 0.0
2018-Jun-18 03:00N 37°56' W 122°25'0 0.5
2018-Jun-18 02:30N 37°55' W 122°25'2 4.9
2018-Jun-18 02:00N 37°53' W 122°25'4 8.0
2018-Jun-18 01:30N 37°49' W 122°26'4 7.8
2018-Jun-18 01:00N 37°48' W 122°31'510.6
2018-Jun-18 00:30N 37°46' W 122°37'510.3
2018-Jun-18 00:00N 37°44' W 122°43'4 7.8
2018-Jun-17 23:30N 37°41' W 122°46'5 8.5
2018-Jun-17 22:58N 37°39' W 122°51'511.0
2018-Jun-17 22:30N 37°36' W 122°57'611.6
2018-Jun-17 22:00N 37°33' W 123°03'611.3
2018-Jun-17 21:30N 37°29' W 123°08'4 7.5
2018-Jun-17 21:00N 37°26' W 123°11'4 7.2
2018-Jun-17 20:30N 37°22' W 123°10'714.6
2018-Jun-17 20:00N 37°15' W 123°09'15513.5
2018-Jun-17 08:32N 34°50' W 122°03'014.0
2018-Jun-17 08:30N 34°50' W 122°03'1513.0
2018-Jun-17 07:21N 34°37' W 121°53'413.2
2018-Jun-17 07:00N 34°33' W 121°50'713.5
2018-Jun-17 06:30N 34°27' W 121°46'713.6
2018-Jun-17 06:00N 34°22' W 121°41'713.8
2018-Jun-17 05:30N 34°17' W 121°35'713.9
2018-Jun-17 05:01N 34°14' W 121°28'713.3
2018-Jun-17 04:30N 34°10' W 121°21'713.5
2018-Jun-17 04:00N 34°06' W 121°14'713.6
2018-Jun-17 03:30N 34°03' W 121°07'713.7
2018-Jun-17 03:00N 33°59' W 120°60'713.3
2018-Jun-17 02:30N 33°56' W 120°53'713.4
2018-Jun-17 02:01N 33°52' W 120°46'714.0
2018-Jun-17 01:30N 33°48' W 120°39'713.8
2018-Jun-17 01:00N 33°45' W 120°32'714.0
2018-Jun-17 00:30N 33°41' W 120°25'714.0
2018-Jun-17 00:00N 33°37' W 120°18'713.4
2018-Jun-16 23:30N 33°35' W 120°10'714.5
2018-Jun-16 23:00N 33°35' W 120°01'714.6
2018-Jun-16 22:31N 33°35' W 119°53'815.0
2018-Jun-16 22:00N 33°35' W 119°44'714.9
2018-Jun-16 21:31N 33°34' W 119°35'714.8
2018-Jun-16 21:00N 33°31' W 119°27'714.7
2018-Jun-16 20:30N 33°27' W 119°20'714.8
2018-Jun-16 20:00N 33°21' W 119°14'714.8
2018-Jun-16 19:30N 33°15' W 119°09'714.9
2018-Jun-16 19:01N 33°14' W 119°00'713.5
2018-Jun-16 18:27N 33°14' W 118°51'611.7
2018-Jun-16 17:58N 33°14' W 118°45'511.0
2018-Jun-16 17:29N 33°13' W 118°38'611.7
2018-Jun-16 16:58N 33°10' W 118°32'612.1
2018-Jun-16 16:30N 33°08' W 118°26'611.8
2018-Jun-16 16:00N 33°06' W 118°19'611.8
2018-Jun-16 15:30N 33°06' W 118°12'612.0
2018-Jun-16 14:59N 33°06' W 118°05'712.0
2018-Jun-16 14:25N 33°06' W 117°57'6 1.9
2018-Jun-16 11:19N 33°04' W 117°50'0 1.0
2018-Jun-16 10:55N 33°04' W 117°50'0 1.0
2018-Jun-16 10:31N 33°03' W 117°50'0 0.9
2018-Jun-16 10:01N 33°03' W 117°50'1 1.0
2018-Jun-16 09:19N 33°02' W 117°49'0 0.9
2018-Jun-16 09:01N 33°02' W 117°49'1 1.1
2018-Jun-16 08:31N 33°02' W 117°49'1 1.0
2018-Jun-16 07:55N 33°01' W 117°48'0 1.1
2018-Jun-16 07:31N 33°01' W 117°48'0 1.0
2018-Jun-16 07:01N 33°01' W 117°47'1 1.7
2018-Jun-16 06:25N 32°60' W 117°46'1 2.0
2018-Jun-16 05:55N 32°59' W 117°46'1 1.4
2018-Jun-16 05:25N 32°59' W 117°45'1 1.0
2018-Jun-16 04:55N 32°58' W 117°45'1 1.6
2018-Jun-16 04:31N 32°58' W 117°44'1 1.8
2018-Jun-16 04:01N 32°57' W 117°44'2 1.2
2018-Jun-16 02:20N 32°56' W 117°42'2 1.1
2018-Jun-16 00:29N 32°57' W 117°44'1 1.3
2018-Jun-15 23:59N 32°57' W 117°44'1 1.3
2018-Jun-15 23:29N 32°58' W 117°45'1 1.3
2018-Jun-15 22:53N 32°58' W 117°45'0 1.2
2018-Jun-15 22:29N 32°59' W 117°46'1 1.1
2018-Jun-15 21:59N 32°59' W 117°46'0 1.0
2018-Jun-15 21:29N 32°59' W 117°47'1 1.3
2018-Jun-15 20:47N 32°60' W 117°48'0 1.3
2018-Jun-15 20:29N 32°60' W 117°48'1 1.4
2018-Jun-15 19:47N 33°00' W 117°49'0 1.3
2018-Jun-15 19:29N 33°01' W 117°49'1 1.1
2018-Jun-15 18:59N 33°01' W 117°50'0 0.8
2018-Jun-15 18:29N 33°01' W 117°50'0 0.6
2018-Jun-15 17:41N 33°01' W 117°51'0 0.6
2018-Jun-15 17:29N 33°01' W 117°51'0 0.5
2018-Jun-15 16:59N 33°01' W 117°51'0 0.6
2018-Jun-15 16:30N 33°02' W 117°52'1 1.6
2018-Jun-15 16:00N 33°02' W 117°52'1 2.7
2018-Jun-15 15:30N 33°03' W 117°53'2 4.3
2018-Jun-15 15:00N 33°05' W 117°55'2 4.3
2018-Jun-15 14:30N 33°07' W 117°56'2 5.0
2018-Jun-15 14:00N 33°09' W 117°58'3 6.4
2018-Jun-15 13:30N 33°12' W 117°60'0 0.6
2018-Jun-15 13:00N 33°12' W 118°00'4 7.8
2018-Jun-15 12:29N 33°15' W 118°03'611.7
2018-Jun-15 12:00N 33°19' W 118°08'611.9
2018-Jun-15 11:29N 33°23' W 118°12'611.9
2018-Jun-15 10:58N 33°29' W 118°17'511.0
2018-Jun-15 10:30N 33°31' W 118°22'611.3
2018-Jun-15 10:00N 33°32' W 118°28'611.6
2018-Jun-15 09:30N 33°35' W 118°35'611.6
2018-Jun-15 09:00N 33°36' W 118°41'711.8
2018-Jun-15 08:24N 33°37' W 118°50'611.8
2018-Jun-15 07:53N 33°37' W 118°57'511.9
2018-Jun-15 07:30N 33°38' W 119°03'813.2
2018-Jun-15 06:56N 33°38' W 119°12'5 8.8
2018-Jun-15 06:21N 33°38' W 119°18'712.9
2018-Jun-15 05:49N 33°39' W 119°26'915.4
2018-Jun-15 05:14N 33°39' W 119°37'415.9
2018-Jun-15 04:57N 33°39' W 119°42'815.6
2018-Jun-15 04:28N 33°38' W 119°51'715.0
2018-Jun-15 04:00N 33°37' W 119°59'714.9
2018-Jun-15 03:30N 33°36' W 120°08'814.7
2018-Jun-15 02:57N 33°38' W 120°18'915.4
2018-Jun-15 02:23N 33°43' W 120°26'715.8
2018-Jun-15 01:58N 33°47' W 120°33'815.5
2018-Jun-15 01:28N 33°51' W 120°41'715.3
2018-Jun-15 01:00N 33°55' W 120°48'815.4
2018-Jun-15 00:30N 34°01' W 120°54'815.9
2018-Jun-14 23:59N 34°08' W 120°58'815.7
2018-Jun-14 23:29N 34°15' W 121°04'815.7
2018-Jun-14 23:00N 34°21' W 121°08'815.9
2018-Jun-14 22:31N 34°28' W 121°13'815.6
2018-Jun-14 22:00N 34°35' W 121°18'815.8
2018-Jun-14 21:30N 34°42' W 121°23'815.5
2018-Jun-14 21:00N 34°48' W 121°28'815.5
2018-Jun-14 20:30N 34°55' W 121°33'815.5
2018-Jun-14 20:00N 35°01' W 121°38'815.5
2018-Jun-14 19:30N 35°08' W 121°43'816.0
2018-Jun-14 19:00N 35°15' W 121°47'815.7
2018-Jun-14 18:30N 35°22' W 121°52'815.8
2018-Jun-14 18:00N 35°29' W 121°57'815.7
2018-Jun-14 17:30N 35°35' W 122°02'815.7
2018-Jun-14 17:00N 35°42' W 122°07'6015.7
2018-Jun-14 13:13N 36°35' W 122°41'3015.3
2018-Jun-14 11:18N 37°02' W 122°56'715.0
2018-Jun-14 10:51N 37°09' W 122°57'615.2
2018-Jun-14 10:26N 37°15' W 122°59'615.1
2018-Jun-14 10:01N 37°21' W 123°01'915.3
2018-Jun-14 09:23N 37°30' W 123°04'411.0
2018-Jun-14 09:00N 37°34' W 123°04'5 9.8
2018-Jun-14 08:30N 37°37' W 122°59'510.1
2018-Jun-14 08:00N 37°39' W 122°53'510.0
2018-Jun-14 07:30N 37°42' W 122°48'5 9.3
2018-Jun-14 07:00N 37°43' W 122°42'3 5.2
2018-Jun-14 06:30N 37°44' W 122°39'4 7.5
2018-Jun-14 06:00N 37°47' W 122°36'5 9.5
2018-Jun-14 05:30N 37°49' W 122°30'5 9.2
2018-Jun-14 05:00N 37°51' W 122°25'4 7.2
2018-Jun-14 04:30N 37°54' W 122°25'1 2.4
2018-Jun-14 03:56N 37°56' W 122°25'0 0.0
2018-Jun-14 03:29N 37°56' W 122°25'0 0.0
2018-Jun-14 02:59N 37°56' W 122°25'0 0.0
2018-Jun-14 02:26N 37°56' W 122°25'0 0.0
2018-Jun-14 01:59N 37°56' W 122°25'0 0.0
2018-Jun-14 01:29N 37°56' W 122°25'0 0.0
2018-Jun-14 00:59N 37°56' W 122°25'0 0.0
2018-Jun-14 00:29N 37°56' W 122°25'0 0.0
2018-Jun-13 23:59N 37°56' W 122°25'0 0.0
2018-Jun-13 23:29N 37°56' W 122°25'0 0.0
2018-Jun-13 22:50N 37°56' W 122°25'0 0.0
2018-Jun-13 22:30N 37°56' W 122°25'0 0.0
2018-Jun-13 22:00N 37°56' W 122°25'0 0.0
2018-Jun-13 21:30N 37°56' W 122°25'0 0.0
2018-Jun-13 21:00N 37°56' W 122°25'0 0.0
2018-Jun-13 20:30N 37°56' W 122°25'0 0.0
2018-Jun-13 20:00N 37°56' W 122°25'0 0.0
2018-Jun-13 19:30N 37°56' W 122°25'0 0.0
2018-Jun-13 19:00N 37°56' W 122°25'0 0.0
2018-Jun-13 18:30N 37°56' W 122°25'0 0.0
2018-Jun-13 18:00N 37°56' W 122°25'0 0.0
2018-Jun-13 17:30N 37°56' W 122°25'0 0.0
2018-Jun-13 17:00N 37°56' W 122°25'0 0.0
2018-Jun-13 16:30N 37°56' W 122°25'0 0.0
2018-Jun-13 16:00N 37°56' W 122°25'0 0.0
2018-Jun-13 15:30N 37°56' W 122°25'0 0.0
2018-Jun-13 14:54N 37°56' W 122°25'0 0.0
2018-Jun-13 14:30N 37°56' W 122°25'0 0.0
2018-Jun-13 13:57N 37°56' W 122°25'0 0.0
2018-Jun-13 13:30N 37°56' W 122°25'0 0.0
2018-Jun-13 12:54N 37°56' W 122°25'0 0.0
2018-Jun-13 12:30N 37°56' W 122°25'0 0.0
2018-Jun-13 12:00N 37°56' W 122°25'0 0.0
2018-Jun-13 11:27N 37°56' W 122°25'0 0.0
2018-Jun-13 11:00N 37°56' W 122°25'0 0.0
2018-Jun-13 10:30N 37°56' W 122°25'0 0.0
2018-Jun-13 09:51N 37°56' W 122°25'0 0.0
2018-Jun-13 09:27N 37°56' W 122°25'0 0.0
2018-Jun-13 08:57N 37°56' W 122°25'0 0.0
2018-Jun-13 08:21N 37°56' W 122°25'0 0.0
2018-Jun-13 07:51N 37°56' W 122°25'0 0.0
2018-Jun-13 07:30N 37°56' W 122°25'0 0.0
2018-Jun-13 06:57N 37°56' W 122°25'0 0.0
2018-Jun-13 06:21N 37°56' W 122°25'0 0.0
2018-Jun-13 05:54N 37°56' W 122°25'0 0.0
2018-Jun-13 05:27N 37°56' W 122°25'0 0.0
2018-Jun-13 05:00N 37°56' W 122°25'1 2.0
2018-Jun-13 04:30N 37°55' W 122°25'4 8.0
2018-Jun-13 04:00N 37°51' W 122°25'510.0
2018-Jun-13 03:30N 37°48' W 122°30'612.1
2018-Jun-13 03:00N 37°46' W 122°37'510.0
2018-Jun-13 02:30N 37°43' W 122°43'4 8.0
2018-Jun-13 02:01N 37°41' W 122°47'611.1
2018-Jun-13 01:30N 37°38' W 122°52'611.8
2018-Jun-13 01:00N 37°34' W 122°59'611.7
2018-Jun-13 00:30N 37°31' W 123°05'5 9.9
2018-Jun-13 00:00N 37°27' W 123°09'2 4.0
2018-Jun-12 23:30N 37°25' W 123°09'612.3
2018-Jun-12 22:59N 37°19' W 123°08'613.1
2018-Jun-12 22:30N 37°13' W 123°06'713.5
2018-Jun-12 22:00N 37°06' W 123°05'1313.2
2018-Jun-12 21:02N 36°54' W 123°02'013.0
2018-Jun-12 21:00N 36°53' W 123°02'5413.0
2018-Jun-12 16:50N 35°60' W 122°51'412.6
2018-Jun-12 16:30N 35°56' W 122°49'612.7
2018-Jun-12 16:00N 35°50' W 122°45'712.7
2018-Jun-12 15:29N 35°45' W 122°41'612.8
2018-Jun-12 15:00N 35°39' W 122°37'612.9
2018-Jun-12 14:30N 35°34' W 122°34'713.3
2018-Jun-12 14:00N 35°28' W 122°30'4113.3
2018-Jun-12 10:54N 34°52' W 122°04'612.8
2018-Jun-12 10:25N 34°47' W 122°01'613.2
2018-Jun-12 10:00N 34°42' W 121°57'613.1
2018-Jun-12 09:30N 34°37' W 121°53'713.2
2018-Jun-12 09:00N 34°31' W 121°49'713.3
2018-Jun-12 08:30N 34°26' W 121°44'713.5
2018-Jun-12 08:00N 34°20' W 121°40'713.5
2018-Jun-12 07:31N 34°16' W 121°33'713.5
2018-Jun-12 07:00N 34°13' W 121°26'713.6
2018-Jun-12 06:30N 34°09' W 121°19'713.3
2018-Jun-12 06:00N 34°05' W 121°12'712.8
2018-Jun-12 05:29N 34°02' W 121°05'612.6
2018-Jun-12 05:00N 33°59' W 120°59'712.9
2018-Jun-12 04:30N 33°55' W 120°52'713.0
2018-Jun-12 03:59N 33°52' W 120°46'712.8
2018-Jun-12 03:29N 33°48' W 120°39'713.0
2018-Jun-12 02:58N 33°44' W 120°33'613.0
2018-Jun-12 02:30N 33°40' W 120°27'612.8
2018-Jun-12 02:00N 33°37' W 120°21'612.5
2018-Jun-12 01:30N 33°35' W 120°13'  

Dump ship's entire track history